sensor_id;sensor_type;location;lat;lon;timestamp;pressure;altitude;pressure_sealevel;temperature;humidity
15489;BME280;7846;48.830;9.116;2023-03-19T00:01:44;97544.69;;;13.13;59.72
15489;BME280;7846;48.830;9.116;2023-03-19T00:04:09;97555.75;;;13.31;58.67
15489;BME280;7846;48.830;9.116;2023-03-19T00:06:36;97549.81;;;13.29;58.63
15489;BME280;7846;48.830;9.116;2023-03-19T00:09:02;97552.19;;;13.24;59.23
15489;BME280;7846;48.830;9.116;2023-03-19T00:11:28;97554.59;;;13.11;59.19
15489;BME280;7846;48.830;9.116;2023-03-19T00:13:53;97558.47;;;13.23;58.87
15489;BME280;7846;48.830;9.116;2023-03-19T00:16:19;97550.66;;;13.45;58.19
15489;BME280;7846;48.830;9.116;2023-03-19T00:18:45;97550.84;;;13.58;57.89
15489;BME280;7846;48.830;9.116;2023-03-19T00:21:10;97553.38;;;13.66;57.72
15489;BME280;7846;48.830;9.116;2023-03-19T00:23:36;97553.28;;;13.60;58.00
15489;BME280;7846;48.830;9.116;2023-03-19T00:26:02;97551.31;;;13.62;57.41
15489;BME280;7846;48.830;9.116;2023-03-19T00:28:28;97553.13;;;13.61;57.88
15489;BME280;7846;48.830;9.116;2023-03-19T00:30:54;97546.19;;;13.60;57.47
15489;BME280;7846;48.830;9.116;2023-03-19T00:33:19;97548.00;;;13.45;57.83
15489;BME280;7846;48.830;9.116;2023-03-19T00:35:45;97549.00;;;13.59;57.88
15489;BME280;7846;48.830;9.116;2023-03-19T00:38:10;97543.00;;;13.65;57.46
15489;BME280;7846;48.830;9.116;2023-03-19T00:40:37;97547.28;;;13.66;57.76
15489;BME280;7846;48.830;9.116;2023-03-19T00:43:02;97549.09;;;13.65;57.65
15489;BME280;7846;48.830;9.116;2023-03-19T00:45:28;97556.22;;;13.65;57.53
15489;BME280;7846;48.830;9.116;2023-03-19T00:47:55;97556.69;;;13.68;57.99
15489;BME280;7846;48.830;9.116;2023-03-19T00:50:21;97561.59;;;13.71;57.99
15489;BME280;7846;48.830;9.116;2023-03-19T00:52:47;97556.50;;;13.70;57.60
15489;BME280;7846;48.830;9.116;2023-03-19T00:55:12;97561.41;;;13.73;57.52
15489;BME280;7846;48.830;9.116;2023-03-19T00:57:38;97559.84;;;13.78;57.99
15489;BME280;7846;48.830;9.116;2023-03-19T01:00:06;97559.75;;;13.57;58.65
15489;BME280;7846;48.830;9.116;2023-03-19T01:02:33;97554.41;;;13.65;58.25
15489;BME280;7846;48.830;9.116;2023-03-19T01:04:58;97552.56;;;13.36;58.77
15489;BME280;7846;48.830;9.116;2023-03-19T01:07:23;97559.03;;;13.63;58.23
15489;BME280;7846;48.830;9.116;2023-03-19T01:09:49;97566.97;;;13.63;58.21
15489;BME280;7846;48.830;9.116;2023-03-19T01:12:14;97559.84;;;13.78;58.09
15489;BME280;7846;48.830;9.116;2023-03-19T01:14:40;97566.22;;;13.99;57.28
15489;BME280;7846;48.830;9.116;2023-03-19T01:17:06;97569.16;;;13.89;57.63
15489;BME280;7846;48.830;9.116;2023-03-19T01:19:32;97571.50;;;13.99;57.46
15489;BME280;7846;48.830;9.116;2023-03-19T01:21:58;97585.47;;;13.78;57.93
15489;BME280;7846;48.830;9.116;2023-03-19T01:24:23;97583.13;;;13.68;58.97
15489;BME280;7846;48.830;9.116;2023-03-19T01:26:49;97595.44;;;13.61;58.30
15489;BME280;7846;48.830;9.116;2023-03-19T01:29:15;97589.75;;;13.64;57.93
15489;BME280;7846;48.830;9.116;2023-03-19T01:31:40;97588.78;;;13.65;58.23
15489;BME280;7846;48.830;9.116;2023-03-19T01:34:06;97594.13;;;13.57;58.54
15489;BME280;7846;48.830;9.116;2023-03-19T01:36:33;97594.13;;;13.57;59.42
15489;BME280;7846;48.830;9.116;2023-03-19T01:38:58;97599.16;;;13.67;59.09
15489;BME280;7846;48.830;9.116;2023-03-19T01:41:24;97604.66;;;13.50;59.21
15489;BME280;7846;48.830;9.116;2023-03-19T01:43:52;97616.66;;;13.15;60.66
15489;BME280;7846;48.830;9.116;2023-03-19T01:46:26;97638.44;;;12.71;62.89
15489;BME280;7846;48.830;9.116;2023-03-19T01:48:54;97621.69;;;12.87;61.98
15489;BME280;7846;48.830;9.116;2023-03-19T01:51:26;97628.94;;;13.08;61.79
15489;BME280;7846;48.830;9.116;2023-03-19T01:53:56;97627.44;;;13.14;60.63
15489;BME280;7846;48.830;9.116;2023-03-19T01:56:30;97624.00;;;13.05;59.78
15489;BME280;7846;48.830;9.116;2023-03-19T01:59:00;97625.72;;;13.21;59.20
15489;BME280;7846;48.830;9.116;2023-03-19T02:01:27;97634.63;;;13.20;58.78
15489;BME280;7846;48.830;9.116;2023-03-19T02:03:53;97636.63;;;13.41;57.96
15489;BME280;7846;48.830;9.116;2023-03-19T02:06:19;97631.22;;;13.34;58.71
15489;BME280;7846;48.830;9.116;2023-03-19T02:08:46;97632.91;;;13.50;59.37
15489;BME280;7846;48.830;9.116;2023-03-19T02:11:14;97641.91;;;13.18;60.51
15489;BME280;7846;48.830;9.116;2023-03-19T02:13:40;97640.72;;;13.28;60.81
15489;BME280;7846;48.830;9.116;2023-03-19T02:16:06;97641.63;;;13.36;60.70
15489;BME280;7846;48.830;9.116;2023-03-19T02:18:31;97647.28;;;13.32;62.00
15489;BME280;7846;48.830;9.116;2023-03-19T02:21:07;97651.75;;;13.32;62.69
15489;BME280;7846;48.830;9.116;2023-03-19T02:23:42;97655.44;;;13.00;66.16
15489;BME280;7846;48.830;9.116;2023-03-19T02:26:13;97658.00;;;13.08;68.43
15489;BME280;7846;48.830;9.116;2023-03-19T02:28:44;97649.59;;;13.04;69.44
15489;BME280;7846;48.830;9.116;2023-03-19T02:31:11;97651.28;;;13.28;68.84
15489;BME280;7846;48.830;9.116;2023-03-19T02:33:36;97635.97;;;13.16;70.95
15489;BME280;7846;48.830;9.116;2023-03-19T02:36:04;97631.78;;;13.44;71.96
15489;BME280;7846;48.830;9.116;2023-03-19T02:38:32;97619.59;;;13.58;71.85
15489;BME280;7846;48.830;9.116;2023-03-19T02:41:03;97624.53;;;13.46;73.32
15489;BME280;7846;48.830;9.116;2023-03-19T02:43:31;97631.97;;;13.28;72.98
15489;BME280;7846;48.830;9.116;2023-03-19T02:45:59;97623.97;;;13.51;72.05
15489;BME280;7846;48.830;9.116;2023-03-19T02:48:25;97627.06;;;13.54;72.59
15489;BME280;7846;48.830;9.116;2023-03-19T02:50:52;97619.69;;;13.50;72.33
15489;BME280;7846;48.830;9.116;2023-03-19T02:53:17;97628.50;;;13.57;72.88
15489;BME280;7846;48.830;9.116;2023-03-19T02:55:45;97623.06;;;13.59;72.41
15489;BME280;7846;48.830;9.116;2023-03-19T02:58:11;97626.53;;;13.59;73.66
15489;BME280;7846;48.830;9.116;2023-03-19T03:00:37;97629.72;;;13.54;73.27
15489;BME280;7846;48.830;9.116;2023-03-19T03:03:04;97626.72;;;13.58;72.86
15489;BME280;7846;48.830;9.116;2023-03-19T03:05:31;97622.34;;;13.65;72.72
15489;BME280;7846;48.830;9.116;2023-03-19T03:07:56;97630.28;;;13.50;73.78
15489;BME280;7846;48.830;9.116;2023-03-19T03:10:22;97632.91;;;13.50;73.77
15489;BME280;7846;48.830;9.116;2023-03-19T03:12:47;97633.50;;;13.37;74.19
15489;BME280;7846;48.830;9.116;2023-03-19T03:15:13;97644.13;;;13.52;73.82
15489;BME280;7846;48.830;9.116;2023-03-19T03:17:39;97631.72;;;13.52;73.93
15489;BME280;7846;48.830;9.116;2023-03-19T03:20:06;97634.22;;;13.08;76.16
15489;BME280;7846;48.830;9.116;2023-03-19T03:22:34;97641.06;;;13.25;76.79
15489;BME280;7846;48.830;9.116;2023-03-19T03:24:59;97631.22;;;13.34;75.54
15489;BME280;7846;48.830;9.116;2023-03-19T03:27:25;97634.16;;;13.39;75.82
15489;BME280;7846;48.830;9.116;2023-03-19T03:29:51;97629.41;;;13.49;74.94
15489;BME280;7846;48.830;9.116;2023-03-19T03:32:16;97631.81;;;13.59;74.75
15489;BME280;7846;48.830;9.116;2023-03-19T03:34:42;97628.81;;;13.62;74.49
15489;BME280;7846;48.830;9.116;2023-03-19T03:37:07;97628.63;;;13.64;74.26
15489;BME280;7846;48.830;9.116;2023-03-19T03:39:33;97632.09;;;13.64;73.87
15489;BME280;7846;48.830;9.116;2023-03-19T03:41:59;97629.09;;;13.67;74.41
15489;BME280;7846;48.830;9.116;2023-03-19T03:44:26;97627.44;;;13.96;73.08
15489;BME280;7846;48.830;9.116;2023-03-19T03:46:51;97629.63;;;13.77;73.32
15489;BME280;7846;48.830;9.116;2023-03-19T03:49:17;97632.84;;;13.73;74.88
15489;BME280;7846;48.830;9.116;2023-03-19T03:51:42;97631.59;;;13.46;76.26
15489;BME280;7846;48.830;9.116;2023-03-19T03:54:08;97644.78;;;13.54;76.87
15489;BME280;7846;48.830;9.116;2023-03-19T03:56:34;97650.88;;;13.54;76.01
15489;BME280;7846;48.830;9.116;2023-03-19T03:58:59;97651.25;;;13.66;75.21
15489;BME280;7846;48.830;9.116;2023-03-19T04:01:25;97640.56;;;13.74;75.25
15489;BME280;7846;48.830;9.116;2023-03-19T04:03:51;97650.91;;;13.69;75.48
15489;BME280;7846;48.830;9.116;2023-03-19T04:06:18;97649.31;;;13.60;75.89
15489;BME280;7846;48.830;9.116;2023-03-19T04:08:43;97650.44;;;13.66;75.63
15489;BME280;7846;48.830;9.116;2023-03-19T04:11:10;97658.63;;;13.56;76.48
15489;BME280;7846;48.830;9.116;2023-03-19T04:13:36;97659.53;;;13.63;75.69
15489;BME280;7846;48.830;9.116;2023-03-19T04:16:03;97660.63;;;13.54;75.85
15489;BME280;7846;48.830;9.116;2023-03-19T04:18:29;97659.88;;;13.45;76.18
15489;BME280;7846;48.830;9.116;2023-03-19T04:20:54;97664.50;;;13.28;76.95
15489;BME280;7846;48.830;9.116;2023-03-19T04:23:20;97668.63;;;13.23;77.67
15489;BME280;7846;48.830;9.116;2023-03-19T04:25:45;97660.88;;;13.44;77.13
15489;BME280;7846;48.830;9.116;2023-03-19T04:28:10;97663.59;;;13.36;77.24
15489;BME280;7846;48.830;9.116;2023-03-19T04:30:37;97670.38;;;13.39;77.56
15489;BME280;7846;48.830;9.116;2023-03-19T04:33:03;97667.84;;;13.60;76.77
15489;BME280;7846;48.830;9.116;2023-03-19T04:35:29;97668.50;;;13.62;76.62
15489;BME280;7846;48.830;9.116;2023-03-19T04:37:55;97661.94;;;13.12;78.14
15489;BME280;7846;48.830;9.116;2023-03-19T04:40:20;97663.06;;;13.41;77.57
15489;BME280;7846;48.830;9.116;2023-03-19T04:42:45;97663.75;;;13.58;76.45
15489;BME280;7846;48.830;9.116;2023-03-19T04:45:11;97670.94;;;13.64;76.44
15489;BME280;7846;48.830;9.116;2023-03-19T04:47:36;97673.78;;;13.62;76.50
15489;BME280;7846;48.830;9.116;2023-03-19T04:50:02;97676.69;;;13.67;75.91
15489;BME280;7846;48.830;9.116;2023-03-19T04:52:27;97670.22;;;13.70;75.96
15489;BME280;7846;48.830;9.116;2023-03-19T04:54:54;97672.41;;;13.66;75.89
15489;BME280;7846;48.830;9.116;2023-03-19T04:57:19;97671.13;;;13.62;76.33
15489;BME280;7846;48.830;9.116;2023-03-19T04:59:45;97678.72;;;13.65;75.89
15489;BME280;7846;48.830;9.116;2023-03-19T05:02:11;97685.06;;;13.56;76.52
15489;BME280;7846;48.830;9.116;2023-03-19T05:04:37;97683.88;;;13.59;76.15
15489;BME280;7846;48.830;9.116;2023-03-19T05:07:03;97689.00;;;13.60;76.47
15489;BME280;7846;48.830;9.116;2023-03-19T05:09:29;97690.81;;;13.60;76.68
15489;BME280;7846;48.830;9.116;2023-03-19T05:11:55;97689.38;;;13.72;76.16
15489;BME280;7846;48.830;9.116;2023-03-19T05:14:21;97688.94;;;13.68;76.50
15489;BME280;7846;48.830;9.116;2023-03-19T05:16:46;97687.94;;;13.69;75.75
15489;BME280;7846;48.830;9.116;2023-03-19T05:19:13;97694.38;;;13.67;76.20
15489;BME280;7846;48.830;9.116;2023-03-19T05:21:40;97691.75;;;13.67;75.92
15489;BME280;7846;48.830;9.116;2023-03-19T05:24:06;97691.38;;;13.70;75.78
15489;BME280;7846;48.830;9.116;2023-03-19T05:26:32;97699.53;;;13.68;76.06
15489;BME280;7846;48.830;9.116;2023-03-19T05:28:58;97698.66;;;13.68;76.00
15489;BME280;7846;48.830;9.116;2023-03-19T05:31:23;97695.31;;;13.74;76.02
15489;BME280;7846;48.830;9.116;2023-03-19T05:33:50;97694.66;;;13.72;75.91
15489;BME280;7846;48.830;9.116;2023-03-19T05:36:15;97692.41;;;13.46;75.91
15489;BME280;7846;48.830;9.116;2023-03-19T05:38:41;97686.97;;;13.47;76.85
15489;BME280;7846;48.830;9.116;2023-03-19T05:41:08;97701.94;;;13.55;76.14
15489;BME280;7846;48.830;9.116;2023-03-19T05:43:33;97702.78;;;13.32;75.81
15489;BME280;7846;48.830;9.116;2023-03-19T05:45:59;97705.25;;;13.34;75.92
15489;BME280;7846;48.830;9.116;2023-03-19T05:48:25;97705.59;;;13.54;75.99
15489;BME280;7846;48.830;9.116;2023-03-19T05:50:50;97710.97;;;13.61;75.58
15489;BME280;7846;48.830;9.116;2023-03-19T05:53:17;97720.50;;;13.70;75.55
15489;BME280;7846;48.830;9.116;2023-03-19T05:55:43;97715.50;;;13.52;74.86
15489;BME280;7846;48.830;9.116;2023-03-19T05:58:08;97713.53;;;13.54;75.53
15489;BME280;7846;48.830;9.116;2023-03-19T06:00:34;97713.41;;;13.47;75.09
15489;BME280;7846;48.830;9.116;2023-03-19T06:03:02;97716.34;;;13.52;72.46
15489;BME280;7846;48.830;9.116;2023-03-19T06:05:28;97718.91;;;13.61;74.46
15489;BME280;7846;48.830;9.116;2023-03-19T06:07:54;97726.72;;;13.77;73.68
15489;BME280;7846;48.830;9.116;2023-03-19T06:10:19;97720.78;;;13.90;73.33
15489;BME280;7846;48.830;9.116;2023-03-19T06:12:45;97727.66;;;13.99;72.37
15489;BME280;7846;48.830;9.116;2023-03-19T06:15:10;97735.84;;;14.04;71.83
15489;BME280;7846;48.830;9.116;2023-03-19T06:17:36;97724.91;;;14.07;70.03
15489;BME280;7846;48.830;9.116;2023-03-19T06:20:03;97737.41;;;13.98;70.83
15489;BME280;7846;48.830;9.116;2023-03-19T06:22:28;97733.13;;;14.12;71.14
15489;BME280;7846;48.830;9.116;2023-03-19T06:24:53;97736.22;;;14.16;70.79
15489;BME280;7846;48.830;9.116;2023-03-19T06:27:19;97732.66;;;14.09;70.09
15489;BME280;7846;48.830;9.116;2023-03-19T06:29:44;97736.59;;;13.98;68.97
15489;BME280;7846;48.830;9.116;2023-03-19T06:32:11;97735.78;;;14.27;69.45
15489;BME280;7846;48.830;9.116;2023-03-19T06:34:37;97738.81;;;14.24;68.40
15489;BME280;7846;48.830;9.116;2023-03-19T06:37:02;97730.75;;;14.17;67.88
15489;BME280;7846;48.830;9.116;2023-03-19T06:39:27;97733.94;;;14.42;68.77
15489;BME280;7846;48.830;9.116;2023-03-19T06:41:53;97735.25;;;14.46;68.13
15489;BME280;7846;48.830;9.116;2023-03-19T06:44:19;97734.34;;;14.39;66.04
15489;BME280;7846;48.830;9.116;2023-03-19T06:46:45;97729.31;;;14.59;67.40
15489;BME280;7846;48.830;9.116;2023-03-19T06:49:10;97726.91;;;14.64;67.57
15489;BME280;7846;48.830;9.116;2023-03-19T06:51:35;97730.31;;;14.43;64.42
15489;BME280;7846;48.830;9.116;2023-03-19T06:54:01;97731.31;;;14.13;61.53
15489;BME280;7846;48.830;9.116;2023-03-19T06:56:26;97725.13;;;14.50;61.04
15489;BME280;7846;48.830;9.116;2023-03-19T06:58:53;97723.13;;;14.88;60.00
15489;BME280;7846;48.830;9.116;2023-03-19T07:01:18;97729.50;;;14.94;59.19
15489;BME280;7846;48.830;9.116;2023-03-19T07:03:44;97726.31;;;14.98;59.55
15489;BME280;7846;48.830;9.116;2023-03-19T07:06:10;97730.88;;;14.90;59.28
15489;BME280;7846;48.830;9.116;2023-03-19T07:08:37;97732.56;;;14.91;60.65
15489;BME280;7846;48.830;9.116;2023-03-19T07:11:04;97734.13;;;15.07;60.29
15489;BME280;7846;48.830;9.116;2023-03-19T07:13:30;97733.94;;;15.08;59.91
15489;BME280;7846;48.830;9.116;2023-03-19T07:15:57;97740.75;;;14.96;57.81
15489;BME280;7846;48.830;9.116;2023-03-19T07:18:23;97740.81;;;15.03;59.57
15489;BME280;7846;48.830;9.116;2023-03-19T07:20:48;97740.78;;;15.17;58.09
15489;BME280;7846;48.830;9.116;2023-03-19T07:23:13;97741.78;;;15.38;57.36
15489;BME280;7846;48.830;9.116;2023-03-19T07:25:39;97738.75;;;15.41;57.29
15489;BME280;7846;48.830;9.116;2023-03-19T07:28:04;97746.91;;;15.39;56.41
15489;BME280;7846;48.830;9.116;2023-03-19T07:30:30;97748.09;;;15.58;56.58
15489;BME280;7846;48.830;9.116;2023-03-19T07:32:56;97742.81;;;15.80;57.84
15489;BME280;7846;48.830;9.116;2023-03-19T07:35:22;97747.03;;;15.74;56.24
15489;BME280;7846;48.830;9.116;2023-03-19T07:37:48;97742.72;;;15.94;56.30
15489;BME280;7846;48.830;9.116;2023-03-19T07:40:14;97757.78;;;15.87;56.37
15489;BME280;7846;48.830;9.116;2023-03-19T07:42:39;97755.78;;;15.96;56.90
15489;BME280;7846;48.830;9.116;2023-03-19T07:45:05;97768.50;;;15.58;54.44
15489;BME280;7846;48.830;9.116;2023-03-19T07:47:31;97758.84;;;15.71;54.74
15489;BME280;7846;48.830;9.116;2023-03-19T07:49:57;97753.34;;;15.94;54.03
15489;BME280;7846;48.830;9.116;2023-03-19T07:52:23;97754.03;;;15.82;54.20
15489;BME280;7846;48.830;9.116;2023-03-19T07:54:49;97759.38;;;16.10;55.11
15489;BME280;7846;48.830;9.116;2023-03-19T07:57:15;97761.16;;;16.03;53.32
15489;BME280;7846;48.830;9.116;2023-03-19T07:59:40;97764.78;;;16.30;52.39
15489;BME280;7846;48.830;9.116;2023-03-19T08:02:09;97766.22;;;16.67;52.92
15489;BME280;7846;48.830;9.116;2023-03-19T08:04:35;97760.25;;;16.58;51.33
15489;BME280;7846;48.830;9.116;2023-03-19T08:07:00;97759.25;;;16.59;51.46
15489;BME280;7846;48.830;9.116;2023-03-19T08:09:26;97756.19;;;17.04;51.31
15489;BME280;7846;48.830;9.116;2023-03-19T08:11:51;97757.72;;;16.78;51.35
15489;BME280;7846;48.830;9.116;2023-03-19T08:14:17;97765.94;;;16.90;51.07
15489;BME280;7846;48.830;9.116;2023-03-19T08:16:50;97761.06;;;17.00;51.28
15489;BME280;7846;48.830;9.116;2023-03-19T08:19:15;97759.78;;;16.83;50.36
15489;BME280;7846;48.830;9.116;2023-03-19T08:21:41;97763.53;;;17.02;51.61
15489;BME280;7846;48.830;9.116;2023-03-19T08:24:07;97761.78;;;17.35;49.28
15489;BME280;7846;48.830;9.116;2023-03-19T08:26:33;97756.47;;;17.42;49.33
15489;BME280;7846;48.830;9.116;2023-03-19T08:28:58;97763.09;;;16.98;48.94
15489;BME280;7846;48.830;9.116;2023-03-19T08:31:24;97765.63;;;17.20;49.11
15489;BME280;7846;48.830;9.116;2023-03-19T08:33:50;97759.97;;;17.49;49.49
15489;BME280;7846;48.830;9.116;2023-03-19T08:36:16;97761.44;;;17.78;49.62
15489;BME280;7846;48.830;9.116;2023-03-19T08:38:41;97766.13;;;17.70;48.81
15489;BME280;7846;48.830;9.116;2023-03-19T08:41:07;97762.47;;;18.17;48.62
15489;BME280;7846;48.830;9.116;2023-03-19T08:43:34;97769.66;;;17.77;48.11
15489;BME280;7846;48.830;9.116;2023-03-19T08:46:01;97766.53;;;17.60;48.09
15489;BME280;7846;48.830;9.116;2023-03-19T08:48:27;97766.94;;;18.17;49.83
15489;BME280;7846;48.830;9.116;2023-03-19T08:50:57;97765.53;;;18.01;47.64
15489;BME280;7846;48.830;9.116;2023-03-19T08:53:23;97768.38;;;18.26;48.25
15489;BME280;7846;48.830;9.116;2023-03-19T08:55:53;97769.44;;;17.85;46.92
15489;BME280;7846;48.830;9.116;2023-03-19T08:58:19;97774.97;;;17.90;46.81
15489;BME280;7846;48.830;9.116;2023-03-19T09:00:46;97780.28;;;18.17;46.64
15489;BME280;7846;48.830;9.116;2023-03-19T09:03:12;97778.84;;;18.07;45.53
15489;BME280;7846;48.830;9.116;2023-03-19T09:05:39;97772.28;;;18.23;45.85
15489;BME280;7846;48.830;9.116;2023-03-19T09:08:04;97778.81;;;18.47;45.27
15489;BME280;7846;48.830;9.116;2023-03-19T09:10:30;97783.09;;;18.55;44.51
15489;BME280;7846;48.830;9.116;2023-03-19T09:12:57;97779.16;;;18.77;44.85
15489;BME280;7846;48.830;9.116;2023-03-19T09:15:22;97777.53;;;18.63;44.80
15489;BME280;7846;48.830;9.116;2023-03-19T09:17:48;97780.31;;;18.95;44.73
15489;BME280;7846;48.830;9.116;2023-03-19T09:20:14;97781.25;;;19.52;46.04
15489;BME280;7846;48.830;9.116;2023-03-19T09:22:40;97779.44;;;19.84;42.80
15489;BME280;7846;48.830;9.116;2023-03-19T09:25:06;97787.41;;;20.09;42.15
15489;BME280;7846;48.830;9.116;2023-03-19T09:27:31;97774.91;;;19.15;42.17
15489;BME280;7846;48.830;9.116;2023-03-19T09:29:57;97782.09;;;19.14;43.62
15489;BME280;7846;48.830;9.116;2023-03-19T09:32:23;97772.50;;;19.38;43.65
15489;BME280;7846;48.830;9.116;2023-03-19T09:34:49;97776.41;;;18.97;43.67
15489;BME280;7846;48.830;9.116;2023-03-19T09:37:15;97781.19;;;19.27;45.09
15489;BME280;7846;48.830;9.116;2023-03-19T09:39:40;97777.81;;;19.45;45.21
15489;BME280;7846;48.830;9.116;2023-03-19T09:42:31;97775.31;;;19.81;43.99
15489;BME280;7846;48.830;9.116;2023-03-19T09:45:11;97773.16;;;20.40;44.77
15489;BME280;7846;48.830;9.116;2023-03-19T09:47:39;97774.38;;;20.19;44.79
15489;BME280;7846;48.830;9.116;2023-03-19T09:50:11;97783.97;;;20.70;45.81
15489;BME280;7846;48.830;9.116;2023-03-19T09:52:50;97769.44;;;20.41;43.92
15489;BME280;7846;48.830;9.116;2023-03-19T09:55:43;97776.53;;;20.54;45.44
15489;BME280;7846;48.830;9.116;2023-03-19T09:58:16;97773.84;;;20.72;43.37
15489;BME280;7846;48.830;9.116;2023-03-19T10:00:43;97772.88;;;20.48;43.67
15489;BME280;7846;48.830;9.116;2023-03-19T10:06:16;97764.00;;;20.29;42.37
15489;BME280;7846;48.830;9.116;2023-03-19T10:09:09;97760.72;;;20.27;43.07
15489;BME280;7846;48.830;9.116;2023-03-19T10:11:53;97758.56;;;20.61;42.16
15489;BME280;7846;48.830;9.116;2023-03-19T10:15:03;97757.56;;;20.37;42.01
15489;BME280;7846;48.830;9.116;2023-03-19T10:20:43;97755.94;;;21.93;41.64
15489;BME280;7846;48.830;9.116;2023-03-19T10:25:54;97759.69;;;21.20;38.50
15489;BME280;7846;48.830;9.116;2023-03-19T10:28:21;97757.53;;;20.62;38.95
15489;BME280;7846;48.830;9.116;2023-03-19T10:33:41;97753.00;;;19.94;39.86
15489;BME280;7846;48.830;9.116;2023-03-19T10:36:10;97739.78;;;20.24;39.80
15489;BME280;7846;48.830;9.116;2023-03-19T10:38:41;97741.94;;;20.16;40.28
15489;BME280;7846;48.830;9.116;2023-03-19T10:41:19;97738.81;;;20.19;40.36
15489;BME280;7846;48.830;9.116;2023-03-19T10:43:53;97738.56;;;20.64;40.00
15489;BME280;7846;48.830;9.116;2023-03-19T10:46:20;97732.97;;;20.84;40.44
15489;BME280;7846;48.830;9.116;2023-03-19T10:48:47;97733.44;;;20.99;39.20
15489;BME280;7846;48.830;9.116;2023-03-19T10:51:15;97734.09;;;20.76;39.33
15489;BME280;7846;48.830;9.116;2023-03-19T10:53:42;97736.91;;;20.44;39.84
15489;BME280;7846;48.830;9.116;2023-03-19T10:56:23;97735.16;;;20.57;40.82
15489;BME280;7846;48.830;9.116;2023-03-19T10:59:02;97725.13;;;20.52;39.00
15489;BME280;7846;48.830;9.116;2023-03-19T11:01:37;97736.22;;;20.30;39.11
15489;BME280;7846;48.830;9.116;2023-03-19T11:04:22;97728.22;;;20.49;39.15
15489;BME280;7846;48.830;9.116;2023-03-19T11:06:49;97728.94;;;20.63;39.31
15489;BME280;7846;48.830;9.116;2023-03-19T11:09:35;97721.56;;;20.40;40.04
15489;BME280;7846;48.830;9.116;2023-03-19T11:12:21;97720.00;;;20.50;39.99
15489;BME280;7846;48.830;9.116;2023-03-19T11:14:51;97724.22;;;20.21;39.89
15489;BME280;7846;48.830;9.116;2023-03-19T11:17:26;97722.50;;;20.45;39.49
15489;BME280;7846;48.830;9.116;2023-03-19T11:19:57;97716.81;;;19.98;40.34
15489;BME280;7846;48.830;9.116;2023-03-19T11:22:27;97723.59;;;20.19;40.04
15489;BME280;7846;48.830;9.116;2023-03-19T11:24:56;97725.84;;;20.22;40.15
15489;BME280;7846;48.830;9.116;2023-03-19T11:27:34;97720.94;;;20.19;40.16
15489;BME280;7846;48.830;9.116;2023-03-19T11:30:02;97712.97;;;20.13;40.20
15489;BME280;7846;48.830;9.116;2023-03-19T11:32:44;97713.78;;;20.13;40.32
15489;BME280;7846;48.830;9.116;2023-03-19T11:35:28;97719.75;;;20.34;40.36
15489;BME280;7846;48.830;9.116;2023-03-19T11:37:58;97718.34;;;20.31;40.28
15489;BME280;7846;48.830;9.116;2023-03-19T11:43:43;97712.44;;;21.26;39.58
15489;BME280;7846;48.830;9.116;2023-03-19T11:46:37;97705.59;;;21.84;38.31
15489;BME280;7846;48.830;9.116;2023-03-19T11:49:23;97707.00;;;21.98;38.76
15489;BME280;7846;48.830;9.116;2023-03-19T11:52:07;97697.38;;;22.61;37.96
15489;BME280;7846;48.830;9.116;2023-03-19T11:54:48;97700.00;;;22.96;38.17
15489;BME280;7846;48.830;9.116;2023-03-19T11:57:45;97695.00;;;22.01;37.32
15489;BME280;7846;48.830;9.116;2023-03-19T12:08:23;97682.72;;;22.52;36.98
15489;BME280;7846;48.830;9.116;2023-03-19T12:11:49;97676.56;;;22.28;36.99
15489;BME280;7846;48.830;9.116;2023-03-19T12:27:38;97685.19;;;22.06;37.80
15489;BME280;7846;48.830;9.116;2023-03-19T12:30:38;97684.91;;;23.24;37.00
15489;BME280;7846;48.830;9.116;2023-03-19T12:35:47;97696.38;;;22.38;37.55
15489;BME280;7846;48.830;9.116;2023-03-19T12:38:29;97703.03;;;20.20;43.26
15489;BME280;7846;48.830;9.116;2023-03-19T12:41:02;97684.06;;;19.85;45.69
15489;BME280;7846;48.830;9.116;2023-03-19T12:43:53;97691.53;;;19.19;47.17
15489;BME280;7846;48.830;9.116;2023-03-19T12:49:32;97683.47;;;18.43;47.76
15489;BME280;7846;48.830;9.116;2023-03-19T12:52:21;97689.28;;;18.13;48.34
15489;BME280;7846;48.830;9.116;2023-03-19T12:55:20;97690.56;;;17.97;49.58
15489;BME280;7846;48.830;9.116;2023-03-19T12:57:53;97698.53;;;17.57;49.99
15489;BME280;7846;48.830;9.116;2023-03-19T13:03:26;97709.34;;;17.09;52.43
15489;BME280;7846;48.830;9.116;2023-03-19T13:06:18;97710.50;;;16.87;55.25
15489;BME280;7846;48.830;9.116;2023-03-19T13:08:54;97707.97;;;16.24;58.35
15489;BME280;7846;48.830;9.116;2023-03-19T13:20:19;97719.13;;;16.13;59.82
15489;BME280;7846;48.830;9.116;2023-03-19T13:22:55;97716.28;;;15.86;60.65
15489;BME280;7846;48.830;9.116;2023-03-19T13:25:27;97712.44;;;16.24;59.75
15489;BME280;7846;48.830;9.116;2023-03-19T13:27:55;97703.94;;;16.83;63.37
15489;BME280;7846;48.830;9.116;2023-03-19T13:30:22;97703.81;;;17.04;63.50
15489;BME280;7846;48.830;9.116;2023-03-19T13:32:49;97691.56;;;17.50;63.37
15489;BME280;7846;48.830;9.116;2023-03-19T13:35:38;97693.22;;;17.97;64.39
15489;BME280;7846;48.830;9.116;2023-03-19T13:38:17;97686.09;;;17.78;61.77
15489;BME280;7846;48.830;9.116;2023-03-19T13:40:45;97693.25;;;17.77;60.63
15489;BME280;7846;48.830;9.116;2023-03-19T13:56:26;97701.13;;;18.30;55.33
15489;BME280;7846;48.830;9.116;2023-03-19T13:59:25;97707.28;;;18.24;54.62
15489;BME280;7846;48.830;9.116;2023-03-19T14:01:52;97708.94;;;18.25;55.98
15489;BME280;7846;48.830;9.116;2023-03-19T14:04:31;97711.56;;;18.38;55.74
15489;BME280;7846;48.830;9.116;2023-03-19T14:07:19;97709.00;;;18.77;55.60
15489;BME280;7846;48.830;9.116;2023-03-19T14:09:47;97699.41;;;19.07;54.32
15489;BME280;7846;48.830;9.116;2023-03-19T14:14:46;97703.28;;;20.37;50.69
15489;BME280;7846;48.830;9.116;2023-03-19T14:17:15;97706.16;;;20.72;50.32
15489;BME280;7846;48.830;9.116;2023-03-19T14:19:43;97697.59;;;21.42;49.29
15489;BME280;7846;48.830;9.116;2023-03-19T14:22:19;97697.47;;;22.14;48.88
15489;BME280;7846;48.830;9.116;2023-03-19T14:25:13;97682.66;;;21.88;46.38
15489;BME280;7846;48.830;9.116;2023-03-19T14:27:50;97693.84;;;22.20;46.49
15489;BME280;7846;48.830;9.116;2023-03-19T14:30:30;97698.50;;;22.36;46.03